Time;durP1;ratioP1;P1;durP2;ratioP2;P2;SDS_P1;SDS_P2;PMS_P1;PMS_P2;Temp;Humidity;BMP_temperature;BMP_pressure;BME280_temperature;BME280_humidity;BME280_pressure;Samples;Min_cycle;Max_cycle;Signal;HPM_P1;HPM_P2
2022/04/14 00:01:11;;;;;;;17.42;9.38;;;;;;;13.95;55.99;102012.56;5197940;28;20417;-46
2022/04/14 00:03:44;;;;;;;17.13;8.73;;;;;;;13.91;56.03;102009.38;5198069;28;20443;-47
2022/04/14 00:06:16;;;;;;;18.02;9.40;;;;;;;13.90;56.15;102004.19;5195999;28;20419;-49
2022/04/14 00:08:50;;;;;;;18.90;9.13;;;;;;;13.86;56.17;102002.81;5198290;28;22047;-49
2022/04/14 00:11:23;;;;;;;14.88;8.23;;;;;;;13.80;56.24;101996.25;5195873;28;20771;-49
2022/04/14 00:13:55;;;;;;;17.20;8.98;;;;;;;13.78;56.34;101993.75;5193358;28;20494;-46
2022/04/14 00:16:29;;;;;;;15.75;9.65;;;;;;;13.80;56.51;102014.81;5197796;28;20409;-49
2022/04/14 00:19:01;;;;;;;14.47;9.87;;;;;;;13.77;56.48;102007.16;5196533;28;20524;-50
2022/04/14 00:21:34;;;;;;;16.42;9.93;;;;;;;13.73;56.52;102006.59;5189955;28;21029;-49
2022/04/14 00:24:07;;;;;;;19.25;10.35;;;;;;;13.72;56.64;102004.94;5192048;28;20620;-49
2022/04/14 00:26:39;;;;;;;16.80;9.00;;;;;;;13.71;56.66;102007.72;5191539;28;20509;-50
2022/04/14 00:29:12;;;;;;;19.83;9.80;;;;;;;13.71;56.65;102013.84;5186557;28;20965;-46
2022/04/14 00:31:46;;;;;;;15.18;9.13;;;;;;;13.46;56.70;101978.13;5189563;28;20423;-48
2022/04/14 00:34:18;;;;;;;16.73;10.00;;;;;;;13.66;56.71;102010.81;5197768;28;21581;-49
2022/04/14 00:36:51;;;;;;;17.33;9.80;;;;;;;13.57;56.84;102001.03;5195037;28;20411;-48
2022/04/14 00:39:23;;;;;;;18.05;10.02;;;;;;;13.60;56.90;102006.06;5189210;28;20766;-45
2022/04/14 00:41:56;;;;;;;17.27;10.18;;;;;;;13.55;56.86;102002.97;5190289;28;20904;-47
2022/04/14 00:44:28;;;;;;;18.13;10.57;;;;;;;13.54;56.95;102010.09;5189632;28;20899;-45
2022/04/14 00:47:02;;;;;;;19.67;10.23;;;;;;;13.41;57.04;102001.59;5191920;28;20510;-48
2022/04/14 00:49:36;;;;;;;19.67;10.88;;;;;;;13.47;57.09;102022.28;5193248;28;20788;-45
2022/04/14 00:52:09;;;;;;;20.33;10.75;;;;;;;12.87;57.19;101924.19;5190318;28;20827;-45
2022/04/14 00:54:41;;;;;;;21.13;11.68;;;;;;;13.28;57.40;101999.19;5192413;28;20429;-45
2022/04/14 00:57:15;;;;;;;20.00;11.88;;;;;;;13.35;57.30;102012.78;5191145;28;20873;-50
2022/04/14 00:59:47;;;;;;;22.00;11.15;;;;;;;13.32;57.48;102024.50;5194200;28;20936;-50
2022/04/14 01:02:21;;;;;;;18.60;11.37;;;;;;;13.29;57.52;102024.78;5207315;28;20409;-48
2022/04/14 01:04:54;;;;;;;20.87;11.80;;;;;;;13.27;57.66;102021.41;5192614;28;20744;-48
2022/04/14 01:07:27;;;;;;;22.10;12.27;;;;;;;13.23;57.62;102021.81;5191107;28;20413;-45
2022/04/14 01:10:00;;;;;;;20.02;13.45;;;;;;;13.27;57.62;102033.84;5192145;28;20492;-46
2022/04/14 01:12:33;;;;;;;20.50;12.30;;;;;;;13.25;57.87;102026.00;5197079;28;20405;-46
2022/04/14 01:15:13;;;;;;;20.73;11.60;;;;;;;13.21;57.55;102021.94;5191041;28;20518;-45
2022/04/14 01:17:47;;;;;;;21.92;12.30;;;;;;;13.20;57.83;102030.88;5191424;28;20415;-46
2022/04/14 01:20:19;;;;;;;21.48;12.63;;;;;;;13.13;57.89;102008.50;5191078;28;20421;-46
2022/04/14 01:22:57;;;;;;;22.15;12.63;;;;;;;13.15;58.07;102025.13;5195187;28;20477;-45
2022/04/14 01:25:32;;;;;;;19.77;12.63;;;;;;;12.83;58.01;101985.59;5186609;28;20409;-45
2022/04/14 01:28:05;;;;;;;23.33;12.90;;;;;;;13.01;58.24;102009.63;5192248;28;20423;-45
2022/04/14 01:30:38;;;;;;;23.98;13.20;;;;;;;13.11;57.93;102029.03;5197049;28;20490;-46
2022/04/14 01:33:10;;;;;;;24.23;13.43;;;;;;;13.09;58.22;102028.34;5191913;28;20837;-45
2022/04/14 01:35:43;;;;;;;23.63;13.13;;;;;;;13.06;58.16;102028.59;5193570;28;20431;-46
2022/04/14 01:38:15;;;;;;;25.42;13.18;;;;;;;13.05;58.22;102026.94;5190245;28;20421;-47
2022/04/14 01:40:49;;;;;;;22.98;13.30;;;;;;;13.02;58.33;102030.69;5194977;28;20567;-45
2022/04/14 01:43:21;;;;;;;24.80;15.18;;;;;;;13.01;58.40;102025.53;5189750;28;20880;-47
2022/04/14 01:45:54;;;;;;;26.90;14.50;;;;;;;12.99;58.43;102016.88;5187679;28;20432;-44
2022/04/14 01:48:30;;;;;;;23.48;14.18;;;;;;;12.96;58.53;102022.44;5185925;28;20411;-46
2022/04/14 01:51:02;;;;;;;29.25;16.00;;;;;;;12.89;58.53;102025.66;5190388;28;20417;-47
2022/04/14 01:53:35;;;;;;;24.35;15.57;;;;;;;12.93;58.59;102029.69;5194385;28;20421;-50
2022/04/14 01:56:08;;;;;;;22.83;14.77;;;;;;;12.90;58.54;102032.63;5194390;28;22849;-48
2022/04/14 01:58:41;;;;;;;28.58;15.82;;;;;;;12.90;58.64;102040.56;5197420;28;20425;-49
2022/04/14 02:01:13;;;;;;;31.10;16.27;;;;;;;12.86;58.88;102039.19;5186715;28;20449;-47
2022/04/14 02:03:45;;;;;;;23.38;15.93;;;;;;;12.85;58.55;102034.00;5190552;28;20413;-49
2022/04/14 02:06:18;;;;;;;25.75;16.55;;;;;;;12.77;58.68;102039.16;5198283;28;20458;-45
2022/04/14 02:08:51;;;;;;;30.58;18.20;;;;;;;12.82;58.75;102035.13;5199274;28;20815;-50
2022/04/14 02:11:25;;;;;;;29.23;17.75;;;;;;;12.59;58.80;102001.84;5195255;28;20893;-49
2022/04/14 02:13:58;;;;;;;29.73;17.97;;;;;;;12.76;58.94;102030.38;5186620;28;20923;-47
2022/04/14 02:16:30;;;;;;;30.80;17.75;;;;;;;12.76;58.87;102040.97;5188023;28;20510;-48
2022/04/14 02:19:03;;;;;;;31.90;16.70;;;;;;;12.75;59.00;102036.63;5195755;28;20415;-48
2022/04/14 02:21:35;;;;;;;25.95;17.88;;;;;;;12.73;59.00;102033.28;5188541;28;20768;-45
2022/04/14 02:24:08;;;;;;;31.15;18.25;;;;;;;12.57;58.88;102017.03;5188172;28;20501;-47
2022/04/14 02:26:41;;;;;;;33.38;19.05;;;;;;;12.71;58.93;102048.47;5192705;28;20785;-45
2022/04/14 02:29:14;;;;;;;33.53;19.80;;;;;;;12.70;59.04;102052.09;5192001;28;20480;-46
2022/04/14 02:31:46;;;;;;;31.52;19.80;;;;;;;12.68;59.04;102046.09;5190154;28;20464;-48
2022/04/14 02:34:19;;;;;;;34.00;19.60;;;;;;;12.66;59.16;102043.56;5192883;28;20482;-46
2022/04/14 02:36:51;;;;;;;29.85;18.50;;;;;;;12.39;59.13;102003.59;5190717;28;20474;-45
2022/04/14 02:39:24;;;;;;;35.70;20.85;;;;;;;12.62;59.15;102051.94;5197492;28;20489;-45
2022/04/14 02:41:57;;;;;;;34.30;20.90;;;;;;;12.52;59.16;102041.28;5191843;28;21215;-48
2022/04/14 02:44:30;;;;;;;37.28;20.75;;;;;;;12.52;59.31;102040.47;5189980;28;20480;-41
2022/04/14 02:47:02;;;;;;;33.78;20.45;;;;;;;12.52;59.30;102040.47;5199551;28;20439;-47
2022/04/14 02:50:01;;;;;;;38.35;21.58;;;;;;;12.48;59.42;102046.97;5195080;28;20528;-46
2022/04/14 02:52:34;;;;;;;38.90;22.30;;;;;;;12.44;59.38;102047.25;5189872;28;20499;-50
2022/04/14 02:55:07;;;;;;;33.40;21.67;;;;;;;12.41;59.44;102057.25;5197139;28;20430;-52
2022/04/14 02:57:41;;;;;;;34.10;20.80;;;;;;;12.32;59.50;102034.22;5196566;28;20435;-43
2022/04/14 03:00:15;;;;;;;34.63;22.92;;;;;;;12.35;59.60;102044.53;5195855;28;20439;-44
2022/04/14 03:02:47;;;;;;;36.53;21.90;;;;;;;12.33;59.61;102038.56;5197663;28;20593;-46
2022/04/14 03:05:20;;;;;;;37.65;23.08;;;;;;;12.31;59.63;102057.22;5190240;28;20872;-46
2022/04/14 03:07:52;;;;;;;35.58;22.48;;;;;;;12.28;59.73;102048.69;5193709;28;20936;-43
2022/04/14 03:10:25;;;;;;;36.58;21.88;;;;;;;12.26;59.79;102040.88;5194519;28;20413;-45
2022/04/14 03:12:58;;;;;;;39.80;22.60;;;;;;;12.21;59.66;102043.94;5204198;28;20425;-43
2022/04/14 03:15:31;;;;;;;35.50;22.38;;;;;;;12.22;59.86;102044.75;5196968;28;21052;-47
2022/04/14 03:18:03;;;;;;;39.13;21.60;;;;;;;12.19;59.87;102039.72;5200468;28;21050;-44
2022/04/14 03:20:36;;;;;;;38.58;21.65;;;;;;;12.16;60.06;102035.53;5193323;28;20446;-48
2022/04/14 03:23:08;;;;;;;40.40;23.38;;;;;;;12.10;60.10;102035.22;5196051;28;20983;-46
2022/04/14 03:25:41;;;;;;;39.47;23.08;;;;;;;12.07;60.17;102046.06;5200432;28;20508;-47
2022/04/14 03:28:15;;;;;;;31.88;22.45;;;;;;;12.09;60.10;102036.19;5194152;28;20520;-44
2022/04/14 03:30:47;;;;;;;36.85;22.77;;;;;;;12.04;60.14;102033.09;5195641;28;20504;-50
2022/04/14 03:33:20;;;;;;;34.60;21.88;;;;;;;12.03;60.16;102040.19;5196834;28;20523;-48
2022/04/14 03:35:52;;;;;;;45.20;23.10;;;;;;;11.82;60.21;102011.03;5193423;28;20531;-49
2022/04/14 03:38:25;;;;;;;37.83;22.35;;;;;;;11.98;60.23;102048.53;5194854;28;20421;-49
2022/04/14 03:40:59;;;;;;;41.42;22.70;;;;;;;11.95;60.34;102054.09;5199610;28;20421;-47
2022/04/14 03:43:33;;;;;;;43.65;22.83;;;;;;;11.92;60.26;102050.84;5199940;28;20495;-48
2022/04/14 03:46:05;;;;;;;36.20;22.77;;;;;;;11.83;60.45;102039.19;5190932;28;20497;-48
2022/04/14 03:48:38;;;;;;;40.80;22.33;;;;;;;11.79;60.45;102040.41;5196668;28;20427;-49
2022/04/14 03:51:12;;;;;;;39.88;22.13;;;;;;;11.85;60.50;102063.75;5192334;28;20509;-45
2022/04/14 03:53:45;;;;;;;36.60;21.52;;;;;;;11.80;60.49;102050.03;5196145;28;20957;-46
2022/04/14 03:56:17;;;;;;;38.28;23.10;;;;;;;11.80;60.58;102044.75;5190590;28;20528;-46
2022/04/14 03:58:51;;;;;;;37.22;22.83;;;;;;;11.76;60.73;102049.44;5197140;28;20427;-45
2022/04/14 04:01:23;;;;;;;35.03;23.48;;;;;;;11.77;60.79;102045.00;5193903;28;20787;-46
2022/04/14 04:03:56;;;;;;;40.53;22.83;;;;;;;11.75;60.63;102054.88;5193071;28;20409;-47
2022/04/14 04:06:28;;;;;;;36.70;22.93;;;;;;;11.74;60.78;102050.56;5195453;28;20799;-44
2022/04/14 04:09:01;;;;;;;39.28;23.27;;;;;;;11.71;60.84;102050.81;5186479;28;20820;-46
2022/04/14 04:11:34;;;;;;;39.22;22.70;;;;;;;11.67;60.92;102050.19;5196876;28;20953;-44
2022/04/14 04:14:10;;;;;;;39.88;23.55;;;;;;;11.63;60.71;102037.38;5199358;28;20428;-48
2022/04/14 04:16:43;;;;;;;44.28;24.17;;;;;;;11.64;60.86;102041.69;5198636;28;20512;-45
2022/04/14 04:19:15;;;;;;;44.30;25.02;;;;;;;11.60;60.99;102037.63;5195720;28;20423;-47
2022/04/14 04:21:48;;;;;;;41.53;25.70;;;;;;;11.55;60.98;102035.34;5196162;28;20425;-47
2022/04/14 04:24:20;;;;;;;41.17;24.77;;;;;;;11.63;61.05;102047.94;5195679;28;20438;-46
2022/04/14 04:26:53;;;;;;;44.33;25.20;;;;;;;11.60;61.05;102048.22;5190210;28;20418;-48
2022/04/14 04:29:27;;;;;;;41.15;25.70;;;;;;;11.58;61.04;102055.41;5200147;28;20446;-46
2022/04/14 04:32:01;;;;;;;42.97;25.50;;;;;;;11.48;61.21;102036.81;5189027;28;20810;-48
2022/04/14 04:34:33;;;;;;;37.03;23.63;;;;;;;11.51;61.22;102050.63;5192844;28;20564;-48
2022/04/14 04:37:06;;;;;;;38.85;23.70;;;;;;;11.56;61.35;102062.66;5198666;28;20405;-50
2022/04/14 04:39:38;;;;;;;39.87;23.57;;;;;;;11.58;61.29;102060.72;5197740;28;20815;-49
2022/04/14 04:42:11;;;;;;;39.28;24.40;;;;;;;11.59;61.40;102062.41;5184757;28;20407;-44
2022/04/14 04:44:45;;;;;;;50.75;26.17;;;;;;;11.59;61.35;102068.53;5194340;28;20959;-47
2022/04/14 04:47:20;;;;;;;44.20;26.52;;;;;;;11.59;61.37;102063.25;5196585;28;20560;-45
2022/04/14 04:49:52;;;;;;;47.35;26.83;;;;;;;11.58;61.39;102066.84;5191165;28;20418;-46
2022/04/14 04:52:24;;;;;;;42.95;24.05;;;;;;;11.61;61.54;102071.88;5190439;28;20506;-44
2022/04/14 04:54:57;;;;;;;52.13;27.88;;;;;;;11.63;61.46;102074.41;5192996;28;20512;-49
2022/04/14 04:57:29;;;;;;;51.23;27.63;;;;;;;11.62;61.61;102073.56;5191352;28;20923;-43
2022/04/14 05:00:04;;;;;;;41.10;25.47;;;;;;;11.47;61.66;102049.22;5193672;28;20514;-48
2022/04/14 05:02:37;;;;;;;40.58;25.13;;;;;;;11.68;61.67;102083.66;5188161;28;21056;-45
2022/04/14 05:05:10;;;;;;;48.03;28.27;;;;;;;11.70;61.71;102086.16;5176480;28;20450;-46
2022/04/14 05:07:42;;;;;;;48.85;26.85;;;;;;;11.72;61.63;102078.94;5187733;28;20423;-44
2022/04/14 05:10:14;;;;;;;48.78;25.90;;;;;;;11.72;61.61;102079.78;5197376;28;20433;-44
2022/04/14 05:12:47;;;;;;;49.47;26.98;;;;;;;11.77;61.80;102093.47;5187632;28;20430;-45
2022/04/14 05:15:21;;;;;;;45.07;27.67;;;;;;;11.76;61.80;102085.66;5193335;28;20850;-45
2022/04/14 05:17:54;;;;;;;57.80;28.92;;;;;;;11.85;61.95;102092.03;5190670;28;20437;-44
2022/04/14 05:20:26;;;;;;;55.63;29.10;;;;;;;11.92;61.76;102102.00;5190489;28;20403;-45
2022/04/14 05:22:58;;;;;;;46.35;26.80;;;;;;;11.90;61.65;102088.03;5187483;28;20516;-46
2022/04/14 05:25:31;;;;;;;52.78;27.17;;;;;;;11.98;61.85;102096.19;5183281;28;20419;-47
2022/04/14 05:28:04;;;;;;;44.63;26.13;;;;;;;12.08;61.69;102101.56;5191170;28;20491;-51
2022/04/14 05:30:38;;;;;;;49.50;27.23;;;;;;;12.12;61.82;102102.13;5187258;28;20434;-46
2022/04/14 05:33:11;;;;;;;42.38;26.90;;;;;;;12.19;61.62;102114.72;5192096;28;20915;-49
2022/04/14 05:35:46;;;;;;;50.63;27.30;;;;;;;12.22;61.79;102109.16;5191606;28;20519;-50
2022/04/14 05:38:18;;;;;;;53.25;26.65;;;;;;;12.27;61.87;102116.72;5192211;28;20495;-45
2022/04/14 05:40:51;;;;;;;46.77;26.47;;;;;;;12.32;61.96;102114.50;5192261;28;20575;-46
2022/04/14 05:43:27;;;;;;;49.03;26.33;;;;;;;12.34;62.03;102117.88;5195391;28;20720;-48
2022/04/14 05:46:01;;;;;;;44.90;26.35;;;;;;;12.42;61.90;102126.03;5190481;28;20800;-46
2022/04/14 05:48:34;;;;;;;43.63;24.65;;;;;;;12.41;61.78;102111.09;5195880;28;20902;-45
2022/04/14 05:51:06;;;;;;;49.45;26.08;;;;;;;12.51;61.85;102119.13;5190176;28;20506;-47
2022/04/14 05:53:39;;;;;;;46.92;26.13;;;;;;;12.54;61.99;102124.16;5194009;28;20839;-48
2022/04/14 05:56:13;;;;;;;41.25;23.83;;;;;;;12.57;62.31;102128.31;5200384;28;20432;-44
2022/04/14 05:58:45;;;;;;;47.28;25.98;;;;;;;12.38;62.10;102097.25;5191234;28;20407;-45
2022/04/14 06:01:19;;;;;;;46.38;25.65;;;;;;;12.66;62.11;102133.69;5187854;28;20421;-45
2022/04/14 06:03:51;;;;;;;45.40;25.55;;;;;;;12.68;62.13;102133.56;5194335;28;20413;-47
2022/04/14 06:06:24;;;;;;;44.60;26.73;;;;;;;12.57;62.00;102099.19;5189284;28;20500;-48
2022/04/14 06:08:56;;;;;;;51.83;25.80;;;;;;;12.77;62.05;102127.47;5194342;28;20932;-44
2022/04/14 06:11:29;;;;;;;41.00;25.00;;;;;;;12.89;62.07;102144.13;5193623;28;20423;-45
2022/04/14 06:14:01;;;;;;;42.55;23.92;;;;;;;12.88;62.02;102135.34;5200681;28;20429;-46
2022/04/14 06:16:35;;;;;;;43.78;23.88;;;;;;;12.92;62.05;102131.44;5182786;28;20495;-46
2022/04/14 06:19:08;;;;;;;37.55;22.13;;;;;;;13.06;61.89;102145.31;5195425;28;20522;-47
2022/04/14 06:21:40;;;;;;;36.95;23.13;;;;;;;13.04;61.93;102136.66;5187062;28;20551;-45
2022/04/14 06:24:13;;;;;;;37.85;21.55;;;;;;;13.18;61.86;102151.34;5193926;28;20540;-49
2022/04/14 06:26:45;;;;;;;39.45;22.33;;;;;;;13.26;61.98;102140.94;5194028;28;20922;-47
2022/04/14 06:29:18;;;;;;;44.63;22.63;;;;;;;13.53;61.88;102138.50;5202264;28;20844;-49
2022/04/14 06:31:51;;;;;;;40.33;19.88;;;;;;;14.79;60.62;102108.28;5203350;28;20846;-51
2022/04/14 06:34:24;;;;;;;29.75;17.13;;;;;;;17.02;58.79;102146.41;5197587;28;20552;-51
2022/04/14 06:36:56;;;;;;;32.90;15.20;;;;;;;17.86;58.09;102133.97;5191384;28;20455;-49
2022/04/14 06:39:29;;;;;;;28.05;15.70;;;;;;;17.93;58.22;102151.03;5193052;28;20440;-48
2022/04/14 06:42:01;;;;;;;31.42;15.73;;;;;;;17.67;58.06;102144.94;5189880;28;20413;-51
2022/04/14 06:44:34;;;;;;;29.45;14.40;;;;;;;17.93;57.81;102135.00;5199008;28;20874;-51
2022/04/14 06:47:08;;;;;;;24.70;13.68;;;;;;;19.46;56.12;102161.72;5194021;28;20438;-48
2022/04/14 06:49:41;;;;;;;21.83;12.18;;;;;;;20.97;54.22;102161.78;5212726;28;20429;-47
2022/04/14 06:52:13;;;;;;;22.88;12.38;;;;;;;22.41;52.29;102146.53;5189360;28;20505;-49
2022/04/14 06:54:45;;;;;;;22.67;11.85;;;;;;;23.83;50.36;102139.69;5190064;28;20517;-48
2022/04/14 06:57:20;;;;;;;20.00;10.68;;;;;;;24.96;48.41;102117.91;5191795;28;20522;-50
2022/04/14 06:59:55;;;;;;;22.57;11.03;;;;;;;26.26;46.77;102141.88;5202177;28;20508;-51
2022/04/14 07:02:31;;;;;;;18.20;10.18;;;;;;;27.20;45.31;102150.69;5202518;28;20413;-49
2022/04/14 07:05:04;;;;;;;19.70;10.02;;;;;;;28.02;44.25;102154.47;5194956;28;20840;-55
2022/04/14 07:07:36;;;;;;;21.83;9.77;;;;;;;28.76;42.90;102153.16;5207589;28;20768;-52
2022/04/14 07:10:10;;;;;;;20.23;9.80;;;;;;;29.38;41.72;102135.09;5195054;28;20449;-47
2022/04/14 07:12:44;;;;;;;18.60;9.17;;;;;;;29.90;40.82;102136.00;5189200;28;21065;-49
2022/04/14 07:15:16;;;;;;;19.95;9.30;;;;;;;30.50;39.88;102140.72;5186187;28;20497;-51
2022/04/14 07:17:50;;;;;;;15.77;9.07;;;;;;;31.00;38.73;102135.13;5193788;28;20457;-48
2022/04/14 07:20:23;;;;;;;20.27;9.52;;;;;;;31.40;37.68;102127.63;5205141;28;20456;-49
2022/04/14 07:22:58;;;;;;;23.88;10.32;;;;;;;31.86;36.99;102136.22;5192752;28;20414;-51
2022/04/14 07:25:32;;;;;;;18.08;9.50;;;;;;;32.03;36.44;102126.00;5183181;28;20423;-51
2022/04/14 07:28:05;;;;;;;17.27;9.83;;;;;;;32.39;35.72;102148.06;5194909;28;20569;-52
2022/04/14 07:30:39;;;;;;;19.15;8.82;;;;;;;32.55;35.43;102146.25;5204517;28;20428;-51
2022/04/14 07:33:13;;;;;;;19.83;9.60;;;;;;;32.65;35.24;102142.78;5187685;28;20417;-54
2022/04/14 07:35:46;;;;;;;18.98;8.88;;;;;;;32.74;34.45;102146.66;5208857;28;21276;-51
2022/04/14 07:38:18;;;;;;;19.83;8.60;;;;;;;32.72;34.54;102137.88;5208505;28;20993;-51
2022/04/14 07:40:52;;;;;;;18.23;9.15;;;;;;;33.03;33.80;102150.59;5203451;28;20496;-48
2022/04/14 07:43:24;;;;;;;21.05;9.60;;;;;;;33.23;33.33;102160.78;5205169;28;20844;-49
2022/04/14 07:45:56;;;;;;;22.63;9.60;;;;;;;33.39;33.01;102153.41;5197389;28;20501;-54
2022/04/14 07:48:30;;;;;;;17.90;7.95;;;;;;;33.45;32.86;102152.31;5200041;28;20549;-51
2022/04/14 07:51:03;;;;;;;17.15;8.55;;;;;;;33.53;32.53;102142.75;5192767;28;20523;-57
2022/04/14 07:53:37;;;;;;;20.27;8.20;;;;;;;33.63;32.41;102142.75;5197056;28;20433;-54
2022/04/14 07:56:10;;;;;;;17.35;7.97;;;;;;;33.66;32.31;102146.88;5195154;28;20438;-53
2022/04/14 07:58:43;;;;;;;20.40;8.90;;;;;;;33.55;32.12;102134.28;5197834;28;21067;-53
2022/04/14 08:01:18;;;;;;;15.07;8.68;;;;;;;33.62;32.05;102156.75;5198125;28;20418;-52
2022/04/14 08:03:52;;;;;;;24.90;9.43;;;;;;;33.50;32.02;102157.00;5189191;28;20488;-51
2022/04/14 08:06:27;;;;;;;26.63;8.77;;;;;;;33.42;31.73;102169.31;5207509;28;20470;-53
2022/04/14 08:09:02;;;;;;;15.63;8.90;;;;;;;33.29;31.88;102164.34;5204593;28;20894;-48
2022/04/14 08:11:35;;;;;;;20.88;8.13;;;;;;;33.25;32.01;102157.75;5200699;28;20413;-52
2022/04/14 08:14:07;;;;;;;18.80;8.25;;;;;;;33.23;31.93;102155.31;5203447;28;20428;-51
2022/04/14 08:16:40;;;;;;;16.13;9.20;;;;;;;33.25;31.64;102163.25;5196678;28;20843;-56
2022/04/14 08:19:14;;;;;;;18.07;8.50;;;;;;;33.13;31.69;102154.44;5207593;28;20408;-56
2022/04/14 08:21:47;;;;;;;14.13;8.10;;;;;;;33.01;31.94;102160.16;5180755;28;20423;-52
2022/04/14 08:24:19;;;;;;;11.17;7.43;;;;;;;32.86;31.86;102160.94;5192467;28;20844;-53
2022/04/14 08:26:53;;;;;;;12.93;7.30;;;;;;;32.71;31.97;102152.66;5186763;28;20419;-50
2022/04/14 08:29:26;;;;;;;11.55;7.10;;;;;;;32.63;32.00;102159.44;5176507;28;20514;-54
2022/04/14 08:31:59;;;;;;;40.72;8.18;;;;;;;32.50;32.02;102168.97;5204874;28;20549;-57
2022/04/14 08:34:32;;;;;;;20.92;7.50;;;;;;;32.32;32.11;102155.69;5188869;28;20430;-55
2022/04/14 08:37:08;;;;;;;28.77;9.30;;;;;;;32.17;32.51;102161.06;5200224;28;20426;-53
2022/04/14 08:39:40;;;;;;;11.73;6.78;;;;;;;32.03;32.70;102152.50;5183150;28;20427;-52
2022/04/14 08:42:17;;;;;;;13.65;7.00;;;;;;;31.84;32.64;102143.88;5184967;28;20494;-50
2022/04/14 08:44:54;;;;;;;30.73;7.70;;;;;;;31.58;32.91;102140.91;5186588;28;20576;-55
2022/04/14 08:47:30;;;;;;;16.38;6.57;;;;;;;31.43;33.40;102143.50;5192707;28;20970;-50
2022/04/14 08:50:06;;;;;;;11.68;6.47;;;;;;;31.15;33.42;102134.44;5194793;28;20791;-54
2022/04/14 08:52:40;;;;;;;14.68;6.35;;;;;;;30.86;33.88;102141.22;5191056;28;20425;-53
2022/04/14 08:55:14;;;;;;;10.27;6.22;;;;;;;30.60;33.80;102157.25;5195797;28;20508;-53
2022/04/14 08:57:47;;;;;;;9.82;5.55;;;;;;;30.37;34.15;102157.44;5190582;28;20440;-53
2022/04/14 09:00:20;;;;;;;10.80;6.55;;;;;;;30.21;34.07;102165.41;5197678;28;24372;-53
2022/04/14 09:02:56;;;;;;;11.07;6.57;;;;;;;29.92;34.21;102161.09;5194793;28;20428;-52
2022/04/14 09:05:30;;;;;;;11.05;6.32;;;;;;;29.67;34.30;102165.06;5187568;28;20534;-54
2022/04/14 09:08:02;;;;;;;13.23;6.50;;;;;;;29.43;34.58;102164.31;5182924;28;20405;-54
2022/04/14 09:10:37;;;;;;;10.45;6.28;;;;;;;29.15;34.66;102163.25;5190166;28;21026;-51
2022/04/14 09:13:11;;;;;;;9.80;6.65;;;;;;;28.96;34.47;102164.47;5187661;28;20426;-53
2022/04/14 09:15:44;;;;;;;15.50;7.70;;;;;;;28.73;34.92;102171.59;5198050;28;20946;-55
2022/04/14 09:18:17;;;;;;;10.77;7.22;;;;;;;28.44;35.15;102170.69;5183942;28;20887;-53
2022/04/14 09:21:04;;;;;;;11.45;7.07;;;;;;;28.14;35.34;102178.09;5193090;28;23083;-55
2022/04/14 09:23:36;;;;;;;11.38;7.38;;;;;;;27.97;35.43;102184.22;5193334;28;20433;-55
2022/04/14 09:26:12;;;;;;;13.32;7.32;;;;;;;27.85;35.38;102188.81;5181562;28;20542;-54
2022/04/14 09:29:03;;;;;;;11.45;7.35;;;;;;;27.75;35.42;102191.19;5188764;28;20510;-55
2022/04/14 09:31:49;;;;;;;11.77;7.05;;;;;;;27.61;35.45;102193.28;5180254;28;20468;-51
2022/04/14 09:34:48;;;;;;;14.70;7.90;;;;;;;27.56;35.42;102196.72;5196864;28;20785;-53
2022/04/14 09:37:25;;;;;;;16.23;7.43;;;;;;;27.42;35.39;102192.53;5205048;28;20567;-51
2022/04/14 09:40:01;;;;;;;12.85;7.43;;;;;;;27.42;35.35;102206.09;5211551;28;20419;-54
2022/04/14 09:42:36;;;;;;;17.52;8.13;;;;;;;27.36;35.33;102204.28;5183558;28;20509;-51
2022/04/14 09:45:19;;;;;;;16.35;8.73;;;;;;;27.13;35.32;102184.09;5184790;28;20431;-56
2022/04/14 09:47:53;;;;;;;17.83;9.00;;;;;;;26.98;35.42;102189.09;5186671;28;20458;-55
2022/04/14 09:50:29;;;;;;;13.77;9.07;;;;;;;26.89;35.41;102198.56;5203150;28;20418;-51
2022/04/14 09:53:09;;;;;;;14.63;9.80;;;;;;;26.76;35.31;102198.69;5186114;28;20504;-58
2022/04/14 09:55:55;;;;;;;16.00;9.55;;;;;;;26.62;35.50;102198.84;5187945;28;20419;-54
2022/04/14 09:58:28;;;;;;;14.23;10.02;;;;;;;26.37;35.43;102173.66;5190492;28;20445;-54
2022/04/14 10:01:01;;;;;;;14.30;9.52;;;;;;;26.36;35.50;102194.50;5199706;28;20409;-53
2022/04/14 10:03:35;;;;;;;14.07;9.38;;;;;;;26.22;35.38;102166.69;5208835;28;20409;-58
2022/04/14 10:06:08;;;;;;;16.33;10.23;;;;;;;26.22;35.43;102198.34;5204077;28;20425;-50
2022/04/14 10:08:51;;;;;;;15.77;10.20;;;;;;;25.87;35.60;102190.72;5192889;28;20435;-54
2022/04/14 10:11:29;;;;;;;13.68;10.10;;;;;;;25.70;35.45;102193.06;5196828;28;20430;-54
2022/04/14 10:14:11;;;;;;;19.08;11.35;;;;;;;25.69;35.55;102193.31;5187892;28;20422;-57
2022/04/14 10:16:44;;;;;;;15.90;10.80;;;;;;;25.64;35.51;102196.66;5190000;28;20427;-51
2022/04/14 10:19:17;;;;;;;18.63;10.60;;;;;;;25.57;35.47;102195.88;5190276;28;20433;-54
2022/04/14 10:21:51;;;;;;;17.40;10.45;;;;;;;25.52;35.47;102201.13;5204201;28;20845;-52
2022/04/14 10:24:26;;;;;;;13.27;10.35;;;;;;;25.37;35.32;102168.09;5204342;28;20428;-54
2022/04/14 10:26:59;;;;;;;15.70;11.23;;;;;;;25.48;35.40;102199.88;5185463;28;20427;-51
2022/04/14 10:29:33;;;;;;;15.68;11.18;;;;;;;25.42;35.40;102187.19;5188252;28;20439;-56
2022/04/14 10:32:07;;;;;;;16.93;11.50;;;;;;;25.17;35.37;102171.72;5190007;28;20435;-50
2022/04/14 10:34:42;;;;;;;15.75;11.20;;;;;;;25.15;35.58;102194.59;5198482;28;20829;-52
2022/04/14 10:37:22;;;;;;;16.40;10.68;;;;;;;25.23;35.50;102208.72;5206815;28;20428;-49
2022/04/14 10:39:57;;;;;;;15.82;11.00;;;;;;;25.24;35.35;102204.13;5204442;28;20403;-50
2022/04/14 10:42:30;;;;;;;14.85;9.95;;;;;;;25.21;35.35;102202.72;5195661;28;20549;-56
2022/04/14 10:45:17;;;;;;;13.30;10.27;;;;;;;25.15;35.38;102203.56;5196355;28;20500;-52
2022/04/14 10:48:01;;;;;;;13.48;9.70;;;;;;;25.08;35.50;102197.28;5191531;28;20409;-53
2022/04/14 10:50:34;;;;;;;16.33;10.18;;;;;;;24.89;35.72;102187.38;5185697;28;20405;-53
2022/04/14 10:53:23;;;;;;;15.65;9.93;;;;;;;24.87;35.65;102211.09;5193678;28;20510;-52
2022/04/14 10:55:57;;;;;;;13.55;10.30;;;;;;;24.83;35.69;102210.69;5187413;28;20849;-54
2022/04/14 10:58:55;;;;;;;13.27;9.87;;;;;;;24.79;35.65;102209.44;5195255;28;20987;-57
2022/04/14 11:02:02;;;;;;;16.23;10.48;;;;;;;24.74;35.73;102215.47;5189993;28;20406;-48
2022/04/14 11:04:52;;;;;;;14.73;9.60;;;;;;;24.50;35.74;102205.34;5184736;28;20746;-51
2022/04/14 11:07:25;;;;;;;15.97;9.23;;;;;;;24.49;35.77;102209.91;5195493;28;20422;-52
2022/04/14 11:09:59;;;;;;;14.07;9.30;;;;;;;24.44;36.04;102206.19;5191633;28;20412;-52
2022/04/14 11:12:56;;;;;;;13.90;8.88;;;;;;;24.42;35.82;102197.44;5188545;28;20794;-52
2022/04/14 11:15:33;;;;;;;11.10;7.70;;;;;;;24.48;35.84;102210.13;5190852;28;20422;-47
2022/04/14 11:18:07;;;;;;;11.02;6.88;;;;;;;24.37;35.82;102204.28;5191173;28;20431;-50
2022/04/14 11:21:07;;;;;;;10.20;5.95;;;;;;;24.38;35.87;102216.75;5189812;28;20427;-54
2022/04/14 11:23:41;;;;;;;10.90;7.00;;;;;;;24.37;35.62;102211.53;5194060;28;20655;-55
2022/04/14 11:26:14;;;;;;;12.52;7.57;;;;;;;23.75;35.86;102121.00;5191315;28;20432;-52
2022/04/14 11:28:58;;;;;;;12.93;7.70;;;;;;;24.32;35.78;102206.78;5191081;28;20434;-48
2022/04/14 11:31:30;;;;;;;11.40;6.90;;;;;;;24.19;35.66;102214.88;5189420;28;20417;-48
2022/04/14 11:34:06;;;;;;;12.65;7.50;;;;;;;24.05;35.88;102210.50;5187992;28;20463;-48
2022/04/14 11:36:46;;;;;;;12.90;8.07;;;;;;;24.03;36.02;102218.81;5191353;28;20518;-47
2022/04/14 11:39:25;;;;;;;11.35;8.48;;;;;;;23.76;36.00;102199.03;5190186;28;20441;-51
2022/04/14 11:42:08;;;;;;;13.60;7.90;;;;;;;24.01;36.21;102228.97;5167681;28;20779;-46
2022/04/14 11:44:45;;;;;;;18.25;9.30;;;;;;;24.03;36.24;102234.16;5186085;28;20498;-47